Time;durP1;ratioP1;P1;durP2;ratioP2;P2;SDS_P1;SDS_P2;PMS_P1;PMS_P2;Temp;Humidity;BMP_temperature;BMP_pressure;BME280_temperature;BME280_humidity;BME280_pressure;Samples;Min_cycle;Max_cycle;Signal;HPM_P1;HPM_P2
2023/06/30 00:02:14;;;;;;;20.10;14.43;;;;;;;17.39;100.00;50912.19;6214138;23;20169;-64
2023/06/30 00:04:41;;;;;;;15.37;13.77;;;;;;;17.50;100.00;49937.84;6214178;23;20162;-66
2023/06/30 00:07:08;;;;;;;16.33;14.57;;;;;;;17.58;100.00;52898.28;6214118;23;20157;-65
2023/06/30 00:09:35;;;;;;;15.00;13.50;;;;;;;17.70;100.00;61786.94;6213853;23;20158;-65
2023/06/30 00:12:02;;;;;;;14.57;12.97;;;;;;;17.74;100.00;63767.28;6214140;23;20168;-67
2023/06/30 00:14:29;;;;;;;19.10;13.00;;;;;;;17.78;100.00;76645.13;6213773;23;20172;-65
2023/06/30 00:16:57;;;;;;;13.53;12.53;;;;;;;17.82;100.00;105542.84;6214487;23;20600;-65
2023/06/30 00:19:26;;;;;;;13.97;12.73;;;;;;;17.95;100.00;150548.16;6214165;23;20177;-63
2023/06/30 00:21:53;;;;;;;13.63;12.37;;;;;;;18.06;100.00;150577.41;6214101;23;20240;-64
2023/06/30 00:24:20;;;;;;;13.30;12.30;;;;;;;18.18;100.00;150606.63;6213830;23;20596;-65
2023/06/30 00:26:47;;;;;;;12.70;11.80;;;;;;;18.30;100.00;150637.13;6214365;23;20493;-65
2023/06/30 00:29:14;;;;;;;14.03;12.53;;;;;;;18.35;100.00;150649.88;6213656;23;20248;-66
2023/06/30 00:31:41;;;;;;;13.00;11.67;;;;;;;18.22;100.00;150618.06;6214697;23;20161;-65
2023/06/30 00:34:08;;;;;;;10.83;9.80;;;;;;;18.42;100.00;150666.38;6214807;23;20158;-65
2023/06/30 00:36:36;;;;;;;10.03;9.57;;;;;;;18.48;100.00;150681.66;6214053;23;20241;-66
2023/06/30 00:39:03;;;;;;;10.27;9.77;;;;;;;18.52;100.00;150691.81;6213879;23;20181;-65
2023/06/30 00:41:30;;;;;;;9.70;8.90;;;;;;;18.49;100.00;150684.22;6214528;23;20184;-64
2023/06/30 00:43:58;;;;;;;9.87;9.27;;;;;;;18.43;100.00;150670.22;6214300;23;20215;-65
2023/06/30 00:46:25;;;;;;;8.07;7.47;;;;;;;18.44;100.00;150672.75;6214162;23;20162;-64
2023/06/30 00:48:52;;;;;;;5.90;5.60;;;;;;;18.48;100.00;150682.94;6213687;23;20154;-64
2023/06/30 00:51:20;;;;;;;6.47;6.00;;;;;;;18.53;100.00;150694.44;6213874;23;20172;-65
2023/06/30 00:53:48;;;;;;;5.33;5.13;;;;;;;18.55;100.00;150700.75;6213411;23;20172;-62
2023/06/30 00:56:15;;;;;;;5.10;4.60;;;;;;;18.63;100.00;150719.84;6213722;23;20614;-62
2023/06/30 00:58:45;;;;;;;5.00;4.63;;;;;;;18.64;100.00;150722.38;6213608;23;20640;-62
2023/06/30 01:01:19;;;;;;;4.60;4.40;;;;;;;18.70;100.00;150737.69;6213731;23;20554;-62
2023/06/30 01:03:52;;;;;;;3.90;3.70;;;;;;;18.59;100.00;150710.94;6213293;23;20176;-62
2023/06/30 01:06:25;;;;;;;4.60;4.27;;;;;;;18.73;100.00;150744.00;6213795;23;20189;-63
2023/06/30 01:08:58;;;;;;;3.90;3.80;;;;;;;18.76;100.00;150751.63;6214045;23;20220;-62
2023/06/30 01:11:25;;;;;;;3.77;3.57;;;;;;;18.81;100.00;150764.34;6213418;23;20157;-62
2023/06/30 01:13:55;;;;;;;3.93;3.80;;;;;;;18.88;100.00;150782.19;6213668;23;20220;-62
2023/06/30 01:16:24;;;;;;;3.93;3.73;;;;;;;18.86;100.00;150777.09;6213175;23;20240;-62
2023/06/30 01:18:53;;;;;;;3.80;3.60;;;;;;;18.85;100.00;150775.81;6213641;23;20208;-63
2023/06/30 01:21:21;;;;;;;5.80;5.47;;;;;;;18.78;100.00;150758.03;6213386;23;20237;-62
2023/06/30 01:23:53;;;;;;;5.97;5.47;;;;;;;18.67;100.00;150730.06;6213160;23;20162;-63
2023/06/30 01:26:23;;;;;;;5.90;5.50;;;;;;;18.66;100.00;150728.78;6214796;23;20166;-62
2023/06/30 01:28:51;;;;;;;5.80;5.50;;;;;;;18.71;100.00;150740.22;6214976;23;20189;-63
2023/06/30 01:31:19;;;;;;;5.53;5.20;;;;;;;18.76;100.00;150752.91;6215659;23;20158;-64
2023/06/30 01:33:46;;;;;;;5.33;5.03;;;;;;;18.52;100.00;150693.16;6215133;23;20157;-62
2023/06/30 01:36:13;;;;;;;5.33;5.00;;;;;;;18.59;100.00;150710.94;6215394;23;20160;-63
2023/06/30 01:38:40;;;;;;;5.20;4.70;;;;;;;18.67;100.00;150731.28;6214964;23;20177;-62
2023/06/30 01:41:08;;;;;;;4.83;4.63;;;;;;;18.62;100.00;150718.59;6215237;23;20175;-63
2023/06/30 01:43:38;;;;;;;5.10;4.90;;;;;;;18.47;100.00;150680.38;6215276;23;20232;-61
2023/06/30 01:46:05;;;;;;;6.60;4.87;;;;;;;18.55;100.00;150699.50;6214824;23;20157;-62
2023/06/30 01:48:33;;;;;;;5.87;4.83;;;;;;;18.08;100.00;150581.19;6215211;23;20158;-62
2023/06/30 01:51:00;;;;;;;5.27;4.97;;;;;;;17.91;100.00;148287.47;6215262;23;20623;-62
2023/06/30 01:53:27;;;;;;;5.33;4.93;;;;;;;17.84;100.00;141040.63;6215207;23;20164;-62
2023/06/30 01:55:55;;;;;;;5.50;5.30;;;;;;;17.69;100.00;138687.25;6215063;23;20165;-62
2023/06/30 01:58:22;;;;;;;5.97;5.57;;;;;;;17.43;100.00;122848.84;6215122;23;20268;-62
2023/06/30 02:00:51;;;;;;;5.30;4.73;;;;;;;17.57;100.00;123211.88;6214949;23;20214;-63
2023/06/30 02:03:18;;;;;;;7.20;5.13;;;;;;;17.43;100.00;116155.38;6214909;23;20244;-62
2023/06/30 02:05:45;;;;;;;6.40;5.97;;;;;;;17.45;100.00;115157.44;6215008;23;20161;-63
2023/06/30 02:08:12;;;;;;;7.93;5.93;;;;;;;17.64;100.00;104178.19;6215214;23;20224;-62
2023/06/30 02:10:39;;;;;;;6.50;6.10;;;;;;;17.52;100.00;93843.66;6214784;23;20158;-63
2023/06/30 02:13:06;;;;;;;5.97;5.73;;;;;;;17.33;100.00;102792.13;6214632;23;20322;-62
2023/06/30 02:15:33;;;;;;;7.07;6.07;;;;;;;17.39;100.00;110136.53;6214620;23;20215;-62
2023/06/30 02:18:03;;;;;;;7.03;6.40;;;;;;;17.50;100.00;109822.34;6214949;23;20164;-62
2023/06/30 02:20:29;;;;;;;7.30;6.30;;;;;;;17.55;100.00;103496.75;6215066;23;20161;-61
2023/06/30 02:22:56;;;;;;;7.00;6.47;;;;;;;17.55;100.00;100499.56;6214589;23;20168;-61
2023/06/30 02:25:23;;;;;;;7.63;6.97;;;;;;;17.61;100.00;90536.13;6214940;23;20158;-63
2023/06/30 02:27:52;;;;;;;8.77;6.57;;;;;;;17.31;100.00;93146.03;6214951;23;20502;-62
2023/06/30 02:30:19;;;;;;;8.20;7.47;;;;;;;16.87;100.00;83138.09;6188676;23;20158;-63
2023/06/30 02:32:46;;;;;;;7.60;6.80;;;;;;;17.01;100.00;81833.78;6214879;23;20485;-61
2023/06/30 02:35:14;;;;;;;7.20;6.70;;;;;;;17.06;100.00;79194.47;6214457;23;20170;-61
2023/06/30 02:37:41;;;;;;;8.10;7.20;;;;;;;16.83;100.00;72891.31;6214306;23;20240;-62
2023/06/30 02:40:09;;;;;;;9.50;7.07;;;;;;;17.20;100.00;68979.22;6214710;23;20654;-62
2023/06/30 02:42:36;;;;;;;8.37;7.67;;;;;;;17.18;100.00;68647.22;6214388;23;20216;-62
2023/06/30 02:45:03;;;;;;;7.67;7.13;;;;;;;16.93;100.00;66311.63;6214350;23;20432;-62
2023/06/30 02:47:30;;;;;;;8.53;7.63;;;;;;;16.96;100.00;71917.31;6214419;23;20266;-63
2023/06/30 02:49:57;;;;;;;8.13;6.60;;;;;;;16.81;100.00;67945.47;6214641;23;20496;-63
2023/06/30 02:52:25;;;;;;;17.00;6.80;;;;;;;16.67;100.00;65295.94;6214657;23;20605;-62
2023/06/30 02:54:52;;;;;;;7.03;6.50;;;;;;;16.73;100.00;60369.78;6214535;23;20157;-61
2023/06/30 02:57:21;;;;;;;8.03;7.30;;;;;;;16.84;100.00;57096.41;6214877;23;20180;-63
2023/06/30 02:59:48;;;;;;;8.40;6.10;;;;;;;16.86;100.00;52505.25;6214431;23;20568;-63
2023/06/30 03:02:15;;;;;;;8.10;7.23;;;;;;;16.97;100.00;56452.03;6214396;23;20153;-62
2023/06/30 03:04:42;;;;;;;10.00;7.10;;;;;;;17.06;100.00;61390.56;6214723;23;20164;-62
2023/06/30 03:07:09;;;;;;;8.57;6.67;;;;;;;17.00;100.00;61384.22;6214499;23;20157;-62
2023/06/30 03:09:37;;;;;;;8.90;7.07;;;;;;;17.27;100.00;65362.16;6214190;23;20161;-62
2023/06/30 03:12:05;;;;;;;10.07;8.53;;;;;;;17.27;100.00;63386.63;6214393;23;20239;-62
2023/06/30 03:14:32;;;;;;;25.77;8.83;;;;;;;17.54;100.00;73970.09;6214363;23;20170;-62
2023/06/30 03:16:59;;;;;;;8.60;7.47;;;;;;;17.76;100.00;82931.53;6213834;23;20168;-62
2023/06/30 03:19:26;;;;;;;7.00;6.40;;;;;;;18.40;100.00;149472.88;6214231;23;20191;-64
2023/06/30 03:21:53;;;;;;;20.63;6.87;;;;;;;19.18;100.00;150859.75;6214990;23;20162;-62
2023/06/30 03:24:20;;;;;;;6.80;5.50;;;;;;;20.22;100.00;151120.75;6213910;23;20169;-62
2023/06/30 03:26:48;;;;;;;5.27;4.77;;;;;;;20.78;100.00;151260.91;6214315;23;20562;-63
2023/06/30 03:29:15;;;;;;;4.70;4.50;;;;;;;20.68;100.00;151236.69;6213815;23;20211;-62
2023/06/30 03:31:42;;;;;;;5.27;4.83;;;;;;;20.61;100.00;151218.88;6214082;23;20493;-62
2023/06/30 03:34:09;;;;;;;4.97;4.67;;;;;;;20.49;100.00;151189.59;6214288;23;20240;-62
2023/06/30 03:36:36;;;;;;;5.40;4.55;;;;;;;20.42;100.00;151171.72;6213855;23;20158;-62
2023/06/30 03:39:05;;;;;;;6.10;4.23;;;;;;;20.31;100.00;151142.47;6213699;23;20188;-61
2023/06/30 03:41:31;;;;;;;4.90;4.65;;;;;;;20.44;100.00;151175.56;6213829;23;20164;-64
2023/06/30 03:44:00;;;;;;;7.27;4.30;;;;;;;20.71;100.00;151243.09;6214645;23;20157;-64
2023/06/30 03:46:27;;;;;;;5.43;4.03;;;;;;;20.82;100.00;151272.38;6213773;23;20161;-62
2023/06/30 03:48:54;;;;;;;5.27;4.50;;;;;;;20.91;100.00;151294.03;6213426;23;20165;-62
2023/06/30 03:51:20;;;;;;;9.87;4.83;;;;;;;21.12;100.00;151347.59;6214175;23;20612;-62
2023/06/30 03:53:47;;;;;;;5.05;4.80;;;;;;;21.02;100.00;151322.03;6213729;23;20164;-62
2023/06/30 03:56:14;;;;;;;4.30;4.00;;;;;;;20.98;100.00;151311.84;6213727;23;20240;-61
2023/06/30 03:58:41;;;;;;;4.78;4.47;;;;;;;21.04;100.00;151325.88;6213464;23;20157;-62
2023/06/30 04:01:10;;;;;;;6.82;4.70;;;;;;;21.07;100.00;151334.78;6213618;23;20161;-63
2023/06/30 04:03:37;;;;;;;4.10;3.90;;;;;;;20.98;100.00;151313.13;6213708;23;20161;-62
2023/06/30 04:06:04;;;;;;;4.15;3.85;;;;;;;21.09;100.00;151338.63;6213555;23;20161;-62
2023/06/30 04:08:31;;;;;;;4.30;4.10;;;;;;;21.18;100.00;151361.56;6213657;23;20162;-62
2023/06/30 04:10:58;;;;;;;4.75;4.40;;;;;;;21.14;100.00;151351.38;6213797;23;20166;-63
2023/06/30 04:13:25;;;;;;;9.23;4.53;;;;;;;21.22;100.00;151371.75;6213935;23;20169;-63
2023/06/30 04:15:52;;;;;;;7.80;4.70;;;;;;;21.49;100.00;151439.31;6213291;23;20215;-63
2023/06/30 04:18:21;;;;;;;5.45;4.30;;;;;;;21.49;100.00;151439.31;6213381;23;20154;-63
2023/06/30 04:20:48;;;;;;;3.83;3.63;;;;;;;21.50;100.00;151443.16;6213678;23;20571;-62
2023/06/30 04:23:15;;;;;;;7.80;4.30;;;;;;;21.59;100.00;151464.81;6213947;23;20158;-63
2023/06/30 04:25:42;;;;;;;4.70;4.30;;;;;;;21.73;100.00;151500.47;6213915;23;20179;-62
2023/06/30 04:28:09;;;;;;;5.22;4.20;;;;;;;22.09;100.00;151592.34;6213420;23;20164;-62
2023/06/30 04:30:36;;;;;;;4.43;4.10;;;;;;;22.27;100.00;151636.97;6213616;23;20492;-62
2023/06/30 04:33:02;;;;;;;4.35;4.13;;;;;;;22.37;100.00;151661.16;6213905;23;20614;-62
2023/06/30 04:35:31;;;;;;;7.07;4.22;;;;;;;22.26;100.00;151635.69;6213452;23;20158;-63
2023/06/30 04:37:58;;;;;;;4.45;4.25;;;;;;;22.36;100.00;151658.66;6213272;23;20157;-62
2023/06/30 04:40:25;;;;;;;5.03;4.40;;;;;;;22.40;100.00;151668.84;6187288;23;20264;-63
2023/06/30 04:42:52;;;;;;;9.98;4.53;;;;;;;22.66;100.00;151735.16;6213804;23;20600;-62
2023/06/30 04:45:18;;;;;;;5.60;5.05;;;;;;;22.79;100.00;151768.34;6213783;23;20470;-62
2023/06/30 04:47:45;;;;;;;4.90;4.60;;;;;;;22.91;100.00;151799.00;6213260;23;20172;-62
2023/06/30 04:50:12;;;;;;;10.00;5.18;;;;;;;22.77;100.00;151764.53;6213783;23;20231;-63
2023/06/30 04:52:41;;;;;;;4.88;4.68;;;;;;;23.01;100.00;151824.47;6213538;23;20158;-63
2023/06/30 04:55:08;;;;;;;4.75;4.40;;;;;;;23.06;100.00;151837.25;6213288;23;20158;-62
2023/06/30 04:57:35;;;;;;;6.35;4.95;;;;;;;22.85;100.00;151783.66;6213278;23;20165;-63
2023/06/30 05:00:02;;;;;;;5.88;4.65;;;;;;;23.02;100.00;151827.03;6215625;23;20181;-63
2023/06/30 05:02:29;;;;;;;4.47;4.18;;;;;;;23.23;100.00;151880.63;6215536;23;20157;-60
2023/06/30 05:04:56;;;;;;;4.40;4.13;;;;;;;23.10;100.00;151846.16;6215827;23;20172;-60
2023/06/30 05:07:23;;;;;;;11.15;5.00;;;;;;;23.36;100.00;151911.25;6215895;23;20215;-60
2023/06/30 05:09:51;;;;;;;4.30;3.95;;;;;;;23.70;100.00;151998.09;6215175;23;20165;-60
2023/06/30 05:12:18;;;;;;;4.32;4.03;;;;;;;23.87;100.00;152041.47;6215198;23;20164;-61
2023/06/30 05:14:45;;;;;;;3.70;3.60;;;;;;;23.75;100.00;152010.84;6215490;23;20220;-60
2023/06/30 05:17:14;;;;;;;6.60;4.43;;;;;;;23.77;100.00;152015.94;6215173;23;20189;-60
2023/06/30 05:19:42;;;;;;;4.28;3.97;;;;;;;24.07;100.00;152092.53;6215095;23;20185;-60
2023/06/30 05:22:09;;;;;;;4.55;4.20;;;;;;;24.37;100.00;152166.63;6215181;23;20161;-59
2023/06/30 05:24:36;;;;;;;6.85;3.80;;;;;;;24.79;100.00;152273.91;6215215;23;20158;-61
2023/06/30 05:27:05;;;;;;;6.25;3.13;;;;;;;25.12;100.00;152355.72;6215671;23;20593;-60
2023/06/30 05:29:32;;;;;;;8.57;3.30;;;;;;;25.42;100.00;152432.34;6215123;23;20158;-60
2023/06/30 05:31:59;;;;;;;7.03;3.60;;;;;;;25.61;100.00;152479.69;6214924;23;20169;-60
2023/06/30 05:34:26;;;;;;;4.70;3.92;;;;;;;25.86;100.00;152544.88;6214794;23;20157;-59
2023/06/30 05:36:54;;;;;;;13.63;3.80;;;;;;;26.12;100.00;152608.78;6215144;23;20162;-59
2023/06/30 05:39:21;;;;;;;6.05;3.97;;;;;;;26.11;100.00;152606.22;6208746;23;20197;-58
2023/06/30 05:41:48;;;;;;;5.75;5.07;;;;;;;26.00;100.00;152578.13;6214421;23;20169;-60
2023/06/30 05:44:16;;;;;;;6.88;4.60;;;;;;;26.31;100.00;152657.41;6215891;23;20161;-59
2023/06/30 05:46:43;;;;;;;7.65;7.15;;;;;;;26.03;100.00;152585.78;6215148;23;20597;-60
2023/06/30 05:49:10;;;;;;;9.30;8.38;;;;;;;26.14;100.00;152615.16;6215447;23;20607;-59
2023/06/30 05:51:37;;;;;;;7.43;6.70;;;;;;;26.36;100.00;152670.19;6215135;23;20162;-59
2023/06/30 05:54:04;;;;;;;12.63;6.03;;;;;;;26.64;100.00;152740.56;6214682;23;20158;-59
2023/06/30 05:56:31;;;;;;;7.32;5.13;;;;;;;26.90;100.00;152805.81;6214763;23;20168;-59
2023/06/30 05:58:59;;;;;;;7.35;6.78;;;;;;;26.97;100.00;152825.00;6214789;23;20196;-60
2023/06/30 06:01:28;;;;;;;7.60;6.88;;;;;;;27.10;100.00;152856.97;6214276;23;20187;-62
2023/06/30 06:03:55;;;;;;;10.00;5.82;;;;;;;27.18;100.00;152878.72;6214741;23;20165;-61
2023/06/30 06:06:22;;;;;;;7.45;5.68;;;;;;;27.23;100.00;152890.25;6214443;23;20644;-61
2023/06/30 06:08:49;;;;;;;3.97;3.67;;;;;;;27.26;100.00;152897.91;6214279;23;20236;-62
2023/06/30 06:11:16;;;;;;;4.15;3.40;;;;;;;27.73;98.97;153015.66;6214259;23;20257;-61
2023/06/30 06:13:43;;;;;;;8.10;3.35;;;;;;;28.26;93.91;153151.41;6214247;23;20177;-62
2023/06/30 06:16:10;;;;;;;6.40;3.78;;;;;;;28.28;91.44;153156.50;6214993;23;20497;-60
2023/06/30 06:18:38;;;;;;;10.25;3.17;;;;;;;27.88;93.24;153054.06;6214003;23;20168;-58
2023/06/30 06:21:05;;;;;;;3.50;2.83;;;;;;;28.03;91.62;153093.75;6214522;23;20277;-59
2023/06/30 06:23:32;;;;;;;7.60;3.17;;;;;;;28.41;92.25;153189.78;6214219;23;20236;-59
2023/06/30 06:25:59;;;;;;;12.25;3.80;;;;;;;29.19;85.06;153387.06;6214084;23;20169;-59
2023/06/30 06:28:26;;;;;;;5.88;3.10;;;;;;;30.19;78.99;153640.81;6214567;23;20194;-60
2023/06/30 06:30:53;;;;;;;11.60;4.43;;;;;;;30.47;76.17;153711.34;6214365;23;20245;-61
2023/06/30 06:33:20;;;;;;;8.07;4.10;;;;;;;30.48;76.98;153713.91;6214415;23;20267;-59
2023/06/30 06:35:52;;;;;;;6.30;2.90;;;;;;;30.24;74.44;153653.63;6215272;23;20564;-60
2023/06/30 06:38:19;;;;;;;4.85;2.80;;;;;;;30.24;74.22;153652.34;6214309;23;20162;-62
2023/06/30 06:40:46;;;;;;;3.40;2.50;;;;;;;31.14;69.30;153881.94;6214239;23;20231;-59
2023/06/30 06:43:13;;;;;;;6.90;3.38;;;;;;;31.36;67.28;153935.78;6218521;23;20162;-67
2023/06/30 06:45:41;;;;;;;4.18;3.60;;;;;;;30.66;69.83;153758.78;6219525;23;20585;-67
2023/06/30 06:48:32;;;;;;;4.93;3.10;;;;;;;30.25;70.93;153654.94;6218398;23;20257;-66
2023/06/30 06:51:03;;;;;;;4.70;2.65;;;;;;;30.21;71.74;153645.97;6182075;23;20171;-67
2023/06/30 06:53:32;;;;;;;4.15;2.75;;;;;;;30.30;69.88;153669.00;6218422;23;20227;-67
2023/06/30 06:56:00;;;;;;;3.42;3.22;;;;;;;30.14;71.81;153626.69;6218161;23;20667;-67
2023/06/30 06:58:30;;;;;;;3.42;3.00;;;;;;;30.04;69.64;153601.09;6218667;23;20216;-66
2023/06/30 07:01:00;;;;;;;4.18;2.67;;;;;;;30.17;71.21;153635.66;6218153;23;20646;-67
2023/06/30 07:03:27;;;;;;;3.47;2.60;;;;;;;30.27;72.24;153661.31;6217767;23;20637;-67
2023/06/30 07:05:55;;;;;;;5.13;2.78;;;;;;;30.67;69.24;153762.66;6217917;23;20165;-66
2023/06/30 07:08:23;;;;;;;4.65;3.08;;;;;;;30.52;69.92;153722.88;6218515;23;20162;-67
2023/06/30 07:10:51;;;;;;;3.58;3.35;;;;;;;29.73;73.25;153522.88;6217662;23;20160;-66
2023/06/30 07:13:20;;;;;;;9.32;3.10;;;;;;;29.62;73.54;153494.72;6219849;23;20222;-67
2023/06/30 07:15:48;;;;;;;3.25;2.97;;;;;;;29.83;75.17;153548.50;6218655;23;20200;-68
2023/06/30 07:18:17;;;;;;;2.83;2.63;;;;;;;29.86;74.66;153557.47;6217941;23;20548;-70
2023/06/30 07:20:47;;;;;;;2.78;2.67;;;;;;;30.10;72.88;153617.72;6214482;23;20529;-67
2023/06/30 07:23:15;;;;;;;3.15;2.55;;;;;;;30.23;69.83;153651.06;6215011;23;20434;-68
2023/06/30 07:25:43;;;;;;;2.33;2.22;;;;;;;30.69;69.30;153767.75;6215059;23;20492;-66
2023/06/30 07:28:10;;;;;;;6.10;2.40;;;;;;;30.67;69.47;153762.66;6214745;23;20487;-65
2023/06/30 07:30:37;;;;;;;7.70;3.22;;;;;;;30.98;68.59;153840.81;6214469;23;20164;-67
2023/06/30 07:33:04;;;;;;;6.50;2.97;;;;;;;31.14;69.43;153881.94;6214541;23;20601;-65
2023/06/30 07:35:31;;;;;;;2.00;1.90;;;;;;;31.09;65.93;153867.81;6213463;23;20261;-66
2023/06/30 07:37:57;;;;;;;5.43;2.17;;;;;;;31.02;61.88;153851.13;6214509;23;20579;-66
2023/06/30 07:40:24;;;;;;;3.35;1.60;;;;;;;31.08;63.17;153866.53;6214361;23;20185;-67
2023/06/30 07:42:53;;;;;;;1.80;1.75;;;;;;;30.96;63.13;153835.72;6215468;23;20165;-66
2023/06/30 07:45:20;;;;;;;1.90;1.80;;;;;;;30.62;63.80;153749.81;6216964;23;20242;-66
2023/06/30 07:47:47;;;;;;;2.25;2.10;;;;;;;30.89;64.45;153816.50;6214764;23;20180;-67
2023/06/30 07:50:16;;;;;;;5.15;2.15;;;;;;;30.66;65.74;153758.78;6215262;23;20153;-68
2023/06/30 07:52:45;;;;;;;1.60;1.50;;;;;;;30.87;63.23;153812.63;6214745;23;20189;-67
2023/06/30 07:55:15;;;;;;;3.00;1.75;;;;;;;30.83;66.21;153802.38;6188453;23;20180;-67
2023/06/30 07:57:45;;;;;;;2.00;1.90;;;;;;;30.99;64.27;153843.38;6214724;23;20153;-68
2023/06/30 08:00:18;;;;;;;5.43;2.33;;;;;;;30.94;63.26;153830.56;6214366;23;20620;-66
2023/06/30 08:02:44;;;;;;;4.05;2.20;;;;;;;30.75;66.06;153783.16;6214420;23;20552;-66
2023/06/30 08:05:11;;;;;;;2.00;1.80;;;;;;;30.80;60.12;153794.69;6214915;23;20164;-68
2023/06/30 08:07:38;;;;;;;3.35;2.08;;;;;;;30.80;63.47;153795.97;6214030;23;20233;-68
2023/06/30 08:10:06;;;;;;;4.05;2.00;;;;;;;30.86;64.46;153810.06;6214663;23;20164;-67
2023/06/30 08:12:33;;;;;;;1.75;1.70;;;;;;;31.31;62.15;153924.25;6213951;23;20158;-67
2023/06/30 08:15:00;;;;;;;4.63;2.45;;;;;;;31.52;60.05;153978.13;6214179;23;20205;-68
2023/06/30 08:17:29;;;;;;;2.40;2.22;;;;;;;31.39;58.82;153943.47;6213894;23;20158;-67
2023/06/30 08:19:55;;;;;;;4.13;2.47;;;;;;;31.06;60.10;153860.13;6213897;23;20178;-68
2023/06/30 08:22:23;;;;;;;6.72;2.08;;;;;;;31.43;61.23;153953.72;6214550;23;20541;-66
2023/06/30 08:24:50;;;;;;;2.10;1.90;;;;;;;31.81;63.27;154051.28;6213858;23;20164;-67
2023/06/30 08:27:18;;;;;;;2.47;2.28;;;;;;;31.77;60.17;154039.72;6214809;23;20157;-67
2023/06/30 08:29:45;;;;;;;3.80;2.30;;;;;;;31.60;61.27;153997.41;6214329;23;20161;-67
2023/06/30 08:32:12;;;;;;;2.70;2.13;;;;;;;31.51;61.80;153974.25;6214157;23;20161;-66
2023/06/30 08:34:40;;;;;;;1.80;1.70;;;;;;;31.58;57.96;153993.53;6214868;23;20498;-67
2023/06/30 08:37:07;;;;;;;2.00;1.90;;;;;;;31.71;58.11;154025.59;6216405;23;20260;-65
2023/06/30 08:39:34;;;;;;;2.00;1.90;;;;;;;31.90;58.88;154074.38;6215960;23;20173;-67
2023/06/30 08:42:01;;;;;;;5.55;2.20;;;;;;;32.03;57.35;154106.44;6216322;23;20187;-66
2023/06/30 08:44:28;;;;;;;2.33;1.85;;;;;;;31.83;57.08;154056.38;6216171;23;20268;-66
2023/06/30 08:46:58;;;;;;;1.08;1.08;;;;;;;31.40;50.86;153946.06;6215574;23;20219;-66
2023/06/30 08:49:25;;;;;;;2.00;1.50;;;;;;;31.06;49.75;153861.44;6217374;23;20236;-66
2023/06/30 08:51:56;;;;;;;1.10;1.10;;;;;;;31.54;51.75;153983.28;6216379;23;20157;-67
2023/06/30 08:54:23;;;;;;;1.40;1.40;;;;;;;31.94;54.44;154084.63;6216025;23;20203;-67
2023/06/30 08:56:50;;;;;;;2.25;1.60;;;;;;;32.49;51.68;154224.53;6215727;23;20157;-68
2023/06/30 08:59:17;;;;;;;3.45;1.40;;;;;;;32.96;50.40;154342.66;6216686;23;20168;-67
2023/06/30 09:01:45;;;;;;;2.58;1.50;;;;;;;32.90;48.44;154328.53;6217186;23;20184;-66
2023/06/30 09:04:13;;;;;;;1.55;1.45;;;;;;;32.97;47.34;154345.25;6216425;23;20600;-67
2023/06/30 09:06:48;;;;;;;3.63;1.60;;;;;;;33.39;48.32;154453.13;6216362;23;20156;-67
2023/06/30 09:09:21;;;;;;;2.65;1.65;;;;;;;33.50;48.94;154480.06;6215610;23;20153;-70
2023/06/30 09:11:50;;;;;;;2.40;1.42;;;;;;;33.60;49.66;154504.47;6215843;23;20153;-69
2023/06/30 09:14:18;;;;;;;1.20;1.10;;;;;;;33.52;47.75;154485.25;6215493;23;20173;-65
2023/06/30 09:16:46;;;;;;;1.13;1.13;;;;;;;33.53;47.60;154487.75;6215407;23;20620;-67
2023/06/30 09:19:14;;;;;;;2.50;1.50;;;;;;;33.51;49.77;154483.94;6215975;23;20668;-67
2023/06/30 09:21:41;;;;;;;3.63;1.20;;;;;;;33.36;48.90;154444.09;6215464;23;20177;-67
2023/06/30 09:24:08;;;;;;;1.02;1.02;;;;;;;33.16;47.00;154392.75;6214872;23;20161;-68
2023/06/30 09:26:37;;;;;;;1.25;1.25;;;;;;;32.93;46.99;154336.22;6215538;23;20161;-66
2023/06/30 09:29:09;;;;;;;1.80;1.55;;;;;;;33.18;48.25;154399.22;6215305;23;20202;-68
2023/06/30 09:31:35;;;;;;;3.67;1.27;;;;;;;33.17;47.68;154395.34;6215111;23;20165;-67
2023/06/30 09:34:10;;;;;;;1.65;1.55;;;;;;;33.04;49.27;154364.50;6214926;23;20158;-66
2023/06/30 09:36:38;;;;;;;2.90;1.58;;;;;;;32.89;48.92;154325.94;6214990;23;20165;-67
2023/06/30 09:39:09;;;;;;;1.55;1.30;;;;;;;32.99;46.47;154351.66;6215091;23;20161;-67
2023/06/30 09:41:37;;;;;;;1.52;1.40;;;;;;;32.88;47.92;154323.44;6215720;23;20205;-67
2023/06/30 09:44:05;;;;;;;1.25;1.15;;;;;;;32.58;44.46;154247.66;6215342;23;20499;-67
2023/06/30 09:46:32;;;;;;;1.40;1.33;;;;;;;33.00;47.65;154352.94;6214369;23;20219;-69
2023/06/30 09:49:01;;;;;;;1.02;0.98;;;;;;;32.99;44.90;154350.34;6215306;23;20157;-67
2023/06/30 09:51:31;;;;;;;2.55;1.40;;;;;;;32.75;45.34;154290.03;6214718;23;20196;-67
2023/06/30 09:53:58;;;;;;;2.03;1.10;;;;;;;32.45;46.46;154212.97;6215037;23;20497;-68
2023/06/30 09:56:28;;;;;;;0.98;0.98;;;;;;;32.21;46.12;154151.41;6215112;23;20532;-67
2023/06/30 09:59:00;;;;;;;1.50;1.40;;;;;;;31.96;47.75;154089.72;6214870;23;20173;-66
2023/06/30 10:01:27;;;;;;;1.40;1.40;;;;;;;31.93;48.66;154082.06;6215341;23;20710;-67
2023/06/30 10:03:55;;;;;;;1.55;1.20;;;;;;;32.13;48.78;154132.13;6188670;23;20212;-67
2023/06/30 10:06:23;;;;;;;1.63;1.52;;;;;;;32.57;46.42;154245.06;6214753;23;20173;-67
2023/06/30 10:08:50;;;;;;;1.20;1.20;;;;;;;33.06;44.77;154368.31;6214711;23;20184;-67
2023/06/30 10:11:19;;;;;;;1.42;1.30;;;;;;;33.63;42.06;154513.47;6214823;23;20162;-67
2023/06/30 10:13:48;;;;;;;1.40;1.35;;;;;;;34.03;43.25;154615.00;6214905;23;20179;-68
2023/06/30 10:16:18;;;;;;;1.40;1.30;;;;;;;34.21;43.88;154659.97;6215047;23;20193;-68
2023/06/30 10:18:50;;;;;;;0.93;0.93;;;;;;;33.97;42.02;154599.56;6214886;23;20158;-68
2023/06/30 10:21:17;;;;;;;0.90;0.90;;;;;;;33.80;41.02;154555.91;6215009;23;20181;-68
2023/06/30 10:23:47;;;;;;;2.15;1.27;;;;;;;33.60;42.64;154504.47;6215568;23;20459;-67
2023/06/30 10:26:17;;;;;;;2.05;1.10;;;;;;;33.16;41.82;154392.75;6214828;23;20158;-62
2023/06/30 10:28:44;;;;;;;10.20;9.77;;;;;;;32.40;42.76;154200.16;6214027;23;20175;-67
2023/06/30 10:31:11;;;;;;;4.00;1.50;;;;;;;32.14;45.98;154135.97;6215002;23;20154;-65
2023/06/30 10:33:40;;;;;;;1.30;1.30;;;;;;;32.03;47.16;154106.44;6215703;23;20160;-68
2023/06/30 10:36:08;;;;;;;25.20;5.30;;;;;;;31.91;47.35;154076.91;6215829;23;20162;-70
2023/06/30 10:38:35;;;;;;;3.15;2.40;;;;;;;31.24;59.75;153907.56;6215769;23;20164;-68
2023/06/30 10:41:18;;;;;;;2.60;2.38;;;;;;;30.32;69.43;153674.13;6215485;23;20523;-68
2023/06/30 10:44:08;;;;;;;2.63;2.47;;;;;;;29.69;72.60;153512.63;6216070;23;20177;-70
2023/06/30 10:46:45;;;;;;;4.97;2.55;;;;;;;29.01;79.70;153340.94;6215431;23;20170;-69
2023/06/30 10:49:29;;;;;;;3.80;3.25;;;;;;;29.08;82.39;153358.84;6216198;23;20158;-70
2023/06/30 10:51:57;;;;;;;8.55;2.70;;;;;;;28.83;83.44;153294.81;6215385;23;20165;-70
2023/06/30 10:54:28;;;;;;;3.40;2.83;;;;;;;28.35;87.64;153174.41;6215235;23;20183;-70
2023/06/30 10:57:06;;;;;;;2.53;2.42;;;;;;;27.87;95.65;153051.50;6215251;23;20273;-70
2023/06/30 10:59:39;;;;;;;3.10;3.00;;;;;;;27.31;100.00;152910.69;6188768;23;20184;-67
2023/06/30 11:02:26;;;;;;;3.55;2.72;;;;;;;27.59;95.44;152982.38;6214841;23;20261;-68
2023/06/30 11:04:56;;;;;;;2.95;2.75;;;;;;;27.50;99.47;152958.06;6215095;23;20488;-72
2023/06/30 11:07:27;;;;;;;2.63;2.53;;;;;;;27.42;99.90;152938.84;6214738;23;20192;-68
2023/06/30 11:10:01;;;;;;;2.88;2.67;;;;;;;27.54;98.93;152969.56;6215673;23;20160;-68
2023/06/30 11:12:50;;;;;;;2.67;2.55;;;;;;;27.41;98.72;152935.03;6214183;23;20196;-68
2023/06/30 11:15:46;;;;;;;3.90;2.63;;;;;;;27.58;99.65;152979.81;6214579;23;20201;-69
2023/06/30 11:18:14;;;;;;;3.08;2.75;;;;;;;27.64;97.90;152995.19;6183083;23;20177;-68
2023/06/30 11:20:58;;;;;;;10.32;3.00;;;;;;;27.67;96.03;153002.84;6214662;23;20164;-68
2023/06/30 11:23:29;;;;;;;2.50;2.40;;;;;;;27.83;92.98;153041.28;6214253;23;20212;-69
2023/06/30 11:26:11;;;;;;;4.65;2.63;;;;;;;27.86;93.26;153048.94;6214455;23;20212;-70